Time;durP1;ratioP1;P1;durP2;ratioP2;P2;SDS_P1;SDS_P2;PMS_P1;PMS_P2;Temp;Humidity;BMP_temperature;BMP_pressure;BME280_temperature;BME280_humidity;BME280_pressure;Samples;Min_cycle;Max_cycle;Signal;HPM_P1;HPM_P2
2022/03/07 00:00:37;;;;;;;8.13;4.97;;;;;;;;;;5095657;28;20571;-67
2022/03/07 00:03:02;;;;;;;6.53;4.83;;;;;;;;;;5104214;28;20562;-67
2022/03/07 00:05:27;;;;;;;6.13;5.53;;;;;;;;;;5101021;28;20264;-67
2022/03/07 00:07:52;;;;;;;9.33;5.30;;;;;;;;;;5103059;28;20581;-67
2022/03/07 00:10:18;;;;;;;7.67;4.90;;;;;;;;;;5095442;28;20200;-67
2022/03/07 00:12:43;;;;;;;7.57;5.27;;;;;;;;;;5099123;28;20167;-67
2022/03/07 00:15:08;;;;;;;9.37;5.27;;;;;;;;;;5098309;28;20184;-67
2022/03/07 00:17:34;;;;;;;10.07;4.90;;;;;;;;;;5094476;28;20712;-67
2022/03/07 00:19:59;;;;;;;8.07;5.50;;;;;;;;;;5098854;27;20175;-69
2022/03/07 00:22:24;;;;;;;6.43;5.03;;;;;;;;;;5101319;28;20689;-66
2022/03/07 00:24:49;;;;;;;6.93;5.27;;;;;;;;;;5103638;27;20286;-66
2022/03/07 00:27:15;;;;;;;11.37;5.00;;;;;;;;;;5100999;28;20698;-67
2022/03/07 00:29:40;;;;;;;6.07;4.87;;;;;;;;;;5104611;28;20172;-67
2022/03/07 00:32:05;;;;;;;8.70;4.87;;;;;;;;;;5100773;28;20669;-67
2022/03/07 00:34:31;;;;;;;7.33;4.60;;;;;;;;;;5100389;28;20519;-66
2022/03/07 00:36:56;;;;;;;10.20;4.83;;;;;;;;;;5107683;28;20164;-66
2022/03/07 00:39:21;;;;;;;7.60;5.30;;;;;;;;;;5103660;28;20557;-66
2022/03/07 00:41:46;;;;;;;6.80;5.40;;;;;;;;;;5103056;28;20180;-66
2022/03/07 00:44:11;;;;;;;5.70;4.90;;;;;;;;;;5100061;28;20172;-67
2022/03/07 00:46:37;;;;;;;7.97;5.10;;;;;;;;;;5099035;28;20207;-67
2022/03/07 00:49:02;;;;;;;7.40;5.40;;;;;;;;;;5103051;28;20196;-67
2022/03/07 00:51:27;;;;;;;7.60;5.27;;;;;;;;;;5094648;28;20296;-66
2022/03/07 00:53:52;;;;;;;10.23;5.93;;;;;;;;;;5103101;28;20575;-68
2022/03/07 00:56:17;;;;;;;6.40;5.07;;;;;;;;;;5096387;28;20267;-67
2022/03/07 00:58:43;;;;;;;6.23;4.93;;;;;;;;;;5106627;28;20196;-67
2022/03/07 01:01:08;;;;;;;6.90;4.53;;;;;;;;;;5098062;28;20177;-66
2022/03/07 01:03:33;;;;;;;6.60;4.50;;;;;;;;;;5103875;28;20191;-68
2022/03/07 01:05:58;;;;;;;6.50;5.07;;;;;;;;;;5101216;28;20201;-68
2022/03/07 01:08:26;;;;;;;5.53;4.97;;;;;;;;;;5096540;28;20216;-69
2022/03/07 01:10:51;;;;;;;7.10;5.77;;;;;;;;;;5096931;28;20173;-68
2022/03/07 01:13:18;;;;;;;8.53;6.53;;;;;;;;;;5098310;28;20255;-68
2022/03/07 01:15:43;;;;;;;7.50;4.90;;;;;;;;;;5100976;28;20219;-68
2022/03/07 01:18:08;;;;;;;5.73;4.50;;;;;;;;;;5101493;27;20223;-68
2022/03/07 01:20:33;;;;;;;9.77;4.93;;;;;;;;;;5100679;28;20172;-68
2022/03/07 01:22:59;;;;;;;4.87;4.43;;;;;;;;;;5101088;28;20237;-68
2022/03/07 01:25:24;;;;;;;6.43;4.97;;;;;;;;;;5097915;28;20581;-67
2022/03/07 01:27:49;;;;;;;6.60;4.83;;;;;;;;;;5102734;28;20274;-66
2022/03/07 01:30:15;;;;;;;8.70;5.00;;;;;;;;;;5107868;28;20180;-66
2022/03/07 01:32:40;;;;;;;6.33;5.00;;;;;;;;;;5108352;28;20168;-66
2022/03/07 01:35:05;;;;;;;8.77;5.13;;;;;;;;;;5108438;28;20176;-67
2022/03/07 01:37:31;;;;;;;6.20;4.67;;;;;;;;;;5101015;28;20681;-68
2022/03/07 01:39:56;;;;;;;6.77;5.00;;;;;;;;;;5105245;28;20179;-66
2022/03/07 01:42:21;;;;;;;7.57;4.97;;;;;;;;;;5102476;27;20207;-67
2022/03/07 01:44:46;;;;;;;9.40;5.20;;;;;;;;;;5097820;28;20697;-67
2022/03/07 01:47:11;;;;;;;5.73;4.70;;;;;;;;;;5096054;28;20200;-67
2022/03/07 01:49:37;;;;;;;6.50;5.90;;;;;;;;;;5103398;28;20190;-67
2022/03/07 01:52:02;;;;;;;10.47;5.67;;;;;;;;;;5100914;28;20199;-67
2022/03/07 01:54:27;;;;;;;10.77;6.17;;;;;;;;;;5093935;28;20203;-68
2022/03/07 01:56:53;;;;;;;7.17;5.13;;;;;;;;;;5100353;28;20186;-67
2022/03/07 01:59:20;;;;;;;6.37;5.70;;;;;;;;;;5102924;28;20271;-67
2022/03/07 02:01:45;;;;;;;7.07;5.90;;;;;;;;;;5105445;28;20179;-68
2022/03/07 02:04:11;;;;;;;8.80;5.53;;;;;;;;;;5092164;28;20233;-66
2022/03/07 02:06:37;;;;;;;8.27;5.93;;;;;;;;;;5094467;28;20204;-67
2022/03/07 02:09:02;;;;;;;7.33;5.40;;;;;;;;;;5101186;28;20200;-68
2022/03/07 02:11:27;;;;;;;6.33;5.37;;;;;;;;;;5103691;28;20575;-67
2022/03/07 02:13:53;;;;;;;7.07;5.73;;;;;;;;;;5103182;28;20176;-68
2022/03/07 02:16:19;;;;;;;9.43;5.40;;;;;;;;;;5106409;28;20631;-68
2022/03/07 02:18:44;;;;;;;7.50;5.77;;;;;;;;;;5108915;28;20269;-67
2022/03/07 02:21:10;;;;;;;9.07;5.50;;;;;;;;;;5107760;28;20258;-67
2022/03/07 02:23:36;;;;;;;6.27;5.33;;;;;;;;;;5103438;28;20183;-67
2022/03/07 02:26:16;;;;;;;7.80;5.87;;;;;;;;;;5106306;28;20217;-68
2022/03/07 02:28:43;;;;;;;11.23;5.93;;;;;;;;;;5098435;28;20488;-68
2022/03/07 02:31:08;;;;;;;6.80;5.70;;;;;;;;;;5107237;28;20225;-67
2022/03/07 02:33:34;;;;;;;7.57;6.00;;;;;;;;;;5108811;28;20587;-68
2022/03/07 02:35:59;;;;;;;8.30;6.27;;;;;;;;;;5102833;28;20184;-67
2022/03/07 02:38:24;;;;;;;7.77;6.10;;;;;;;;;;5102328;28;20210;-67
2022/03/07 02:40:49;;;;;;;6.77;5.90;;;;;;;;;;5104358;28;20782;-67
2022/03/07 02:43:15;;;;;;;8.50;5.90;;;;;;;;;;5105958;28;20172;-67
2022/03/07 02:45:40;;;;;;;8.33;5.80;;;;;;;;;;5102647;28;20927;-68
2022/03/07 02:48:06;;;;;;;6.97;5.47;;;;;;;;;;5085327;28;20672;-67
2022/03/07 02:50:31;;;;;;;8.10;5.90;;;;;;;;;;5106338;28;20175;-67
2022/03/07 02:52:56;;;;;;;7.17;5.53;;;;;;;;;;5107605;28;20503;-67
2022/03/07 02:55:22;;;;;;;9.17;5.57;;;;;;;;;;5101955;28;20225;-67
2022/03/07 02:57:47;;;;;;;7.53;6.00;;;;;;;;;;5105841;28;22211;-69
2022/03/07 03:00:12;;;;;;;8.13;5.30;;;;;;;;;;5097747;28;20196;-66
2022/03/07 03:02:38;;;;;;;7.40;5.13;;;;;;;;;;5098722;28;20179;-67
2022/03/07 03:05:03;;;;;;;7.37;5.73;;;;;;;;;;5098886;28;20689;-67
2022/03/07 03:07:28;;;;;;;9.40;6.57;;;;;;;;;;5098103;28;20194;-67
2022/03/07 03:09:53;;;;;;;8.53;5.47;;;;;;;;;;5102250;28;20195;-67
2022/03/07 03:12:24;;;;;;;9.30;5.37;;;;;;;;;;5091990;28;20182;-67
2022/03/07 03:14:49;;;;;;;7.00;4.93;;;;;;;;;;5102768;28;20180;-67
2022/03/07 03:17:14;;;;;;;9.30;7.00;;;;;;;;;;5087763;28;20692;-69
2022/03/07 03:19:40;;;;;;;8.30;6.60;;;;;;;;;;5106981;27;20209;-66
2022/03/07 03:22:05;;;;;;;6.53;5.77;;;;;;;;;;5105857;28;20175;-68
2022/03/07 03:24:30;;;;;;;9.70;5.90;;;;;;;;;;5098123;28;20548;-68
2022/03/07 03:26:55;;;;;;;8.03;6.10;;;;;;;;;;5105033;28;20286;-67
2022/03/07 03:29:21;;;;;;;7.63;5.73;;;;;;;;;;5103503;28;20645;-67
2022/03/07 03:31:46;;;;;;;9.80;5.90;;;;;;;;;;5109603;28;20242;-66
2022/03/07 03:34:11;;;;;;;6.27;5.33;;;;;;;;;;5108287;28;20183;-67
2022/03/07 03:36:37;;;;;;;7.50;5.43;;;;;;;;;;5103984;28;20593;-67
2022/03/07 03:39:02;;;;;;;9.63;5.87;;;;;;;;;;5110115;28;20296;-67
2022/03/07 03:41:27;;;;;;;7.73;6.77;;;;;;;;;;5108212;28;20622;-67
2022/03/07 03:43:52;;;;;;;9.83;5.57;;;;;;;;;;5111339;28;20187;-67
2022/03/07 03:46:17;;;;;;;9.73;6.97;;;;;;;;;;5101936;28;20265;-67
2022/03/07 03:48:42;;;;;;;11.00;6.57;;;;;;;;;;5109663;28;20192;-68
2022/03/07 03:51:08;;;;;;;8.73;6.93;;;;;;;;;;5104100;28;20180;-67
2022/03/07 03:53:33;;;;;;;9.23;6.37;;;;;;;;;;5111646;28;20167;-67
2022/03/07 03:55:58;;;;;;;8.53;6.90;;;;;;;;;;5109979;28;20241;-67
2022/03/07 03:58:23;;;;;;;7.73;6.47;;;;;;;;;;5109325;28;20211;-68
2022/03/07 04:00:48;;;;;;;11.50;7.40;;;;;;;;;;5099879;28;20179;-67
2022/03/07 04:03:14;;;;;;;9.30;6.33;;;;;;;;;;5108805;28;20179;-67
2022/03/07 04:05:39;;;;;;;9.70;6.70;;;;;;;;;;5111873;28;20210;-67
2022/03/07 04:08:05;;;;;;;8.33;6.00;;;;;;;;;;5100717;28;20726;-67
2022/03/07 04:10:30;;;;;;;9.23;6.93;;;;;;;;;;5105083;28;20184;-68
2022/03/07 04:12:55;;;;;;;8.83;5.90;;;;;;;;;;5098509;28;20221;-67
2022/03/07 04:15:20;;;;;;;7.77;6.87;;;;;;;;;;5107996;28;20683;-68
2022/03/07 04:17:45;;;;;;;11.97;6.87;;;;;;;;;;5105844;28;20200;-67
2022/03/07 04:20:11;;;;;;;9.77;7.03;;;;;;;;;;5112473;27;20176;-67
2022/03/07 04:22:37;;;;;;;9.90;6.00;;;;;;;;;;5111223;28;20223;-67
2022/03/07 04:25:03;;;;;;;10.30;5.80;;;;;;;;;;5093817;28;20203;-67
2022/03/07 04:27:28;;;;;;;7.30;5.90;;;;;;;;;;5104241;28;20566;-68
2022/03/07 04:29:54;;;;;;;9.30;6.20;;;;;;;;;;5109100;28;20167;-67
2022/03/07 04:32:19;;;;;;;10.27;7.07;;;;;;;;;;5103566;28;20171;-68
2022/03/07 04:34:45;;;;;;;10.50;6.70;;;;;;;;;;5099356;28;20255;-67
2022/03/07 04:37:10;;;;;;;10.57;7.27;;;;;;;;;;5105106;28;20199;-66
2022/03/07 04:39:35;;;;;;;9.93;7.43;;;;;;;;;;5103690;28;20180;-68
2022/03/07 04:42:00;;;;;;;8.90;7.10;;;;;;;;;;5106172;28;20205;-68
2022/03/07 04:44:25;;;;;;;9.10;7.10;;;;;;;;;;5109345;28;20191;-67
2022/03/07 04:46:50;;;;;;;12.03;7.50;;;;;;;;;;5107474;28;20203;-67
2022/03/07 04:49:16;;;;;;;8.97;7.07;;;;;;;;;;5108607;28;20226;-68
2022/03/07 04:51:45;;;;;;;8.53;6.73;;;;;;;;;;5083082;28;20168;-67
2022/03/07 04:54:10;;;;;;;15.77;6.80;;;;;;;;;;5109133;28;20673;-67
2022/03/07 04:56:35;;;;;;;12.90;7.40;;;;;;;;;;5103378;28;20175;-68
2022/03/07 04:59:00;;;;;;;11.17;7.67;;;;;;;;;;5109891;28;20195;-67
2022/03/07 05:01:26;;;;;;;10.80;7.30;;;;;;;;;;5105524;28;20665;-67
2022/03/07 05:03:51;;;;;;;9.60;8.30;;;;;;;;;;5085181;28;20270;-67
2022/03/07 05:06:17;;;;;;;12.27;6.90;;;;;;;;;;5110395;28;20210;-67
2022/03/07 05:08:42;;;;;;;10.43;7.90;;;;;;;;;;5102835;28;20200;-68
2022/03/07 05:11:07;;;;;;;13.20;8.13;;;;;;;;;;5087585;28;20207;-67
2022/03/07 05:13:33;;;;;;;9.37;7.63;;;;;;;;;;5108340;28;20180;-67
2022/03/07 05:15:58;;;;;;;11.27;8.10;;;;;;;;;;5101455;28;20284;-67
2022/03/07 05:18:23;;;;;;;10.90;7.73;;;;;;;;;;5110711;27;20196;-67
2022/03/07 05:20:48;;;;;;;13.30;8.20;;;;;;;;;;5104129;28;20267;-68
2022/03/07 05:23:13;;;;;;;12.67;8.17;;;;;;;;;;5106115;28;20184;-68
2022/03/07 05:25:39;;;;;;;14.67;8.97;;;;;;;;;;5096341;28;20299;-67
2022/03/07 05:28:04;;;;;;;12.30;8.70;;;;;;;;;;5102357;28;20194;-67
2022/03/07 05:30:29;;;;;;;11.93;8.57;;;;;;;;;;5107752;28;20793;-68
2022/03/07 05:32:55;;;;;;;12.87;8.37;;;;;;;;;;5096223;28;20172;-67
2022/03/07 05:35:21;;;;;;;11.10;8.53;;;;;;;;;;5099316;28;20207;-67
2022/03/07 05:37:47;;;;;;;11.77;8.70;;;;;;;;;;5100771;28;20191;-68
2022/03/07 05:40:14;;;;;;;13.30;8.60;;;;;;;;;;5107205;28;20199;-68
2022/03/07 05:42:39;;;;;;;14.33;8.83;;;;;;;;;;5105590;28;20263;-67
2022/03/07 05:45:06;;;;;;;10.67;8.40;;;;;;;;;;5103064;28;20227;-66
2022/03/07 05:47:31;;;;;;;14.33;8.87;;;;;;;;;;5101797;28;20196;-68
2022/03/07 05:49:56;;;;;;;16.00;9.37;;;;;;;;;;5105096;28;20193;-67
2022/03/07 05:52:21;;;;;;;12.73;8.97;;;;;;;;;;5095686;28;20211;-68
2022/03/07 05:54:47;;;;;;;16.70;9.63;;;;;;;;;;5110035;28;20214;-67
2022/03/07 05:57:12;;;;;;;14.60;9.83;;;;;;;;;;5100081;28;20252;-67
2022/03/07 05:59:37;;;;;;;16.97;10.43;;;;;;;;;;5100010;28;20199;-67
2022/03/07 06:02:02;;;;;;;15.13;10.60;;;;;;;;;;5099673;28;20252;-67
2022/03/07 06:04:28;;;;;;;15.20;9.80;;;;;;;;;;5103448;28;20203;-67
2022/03/07 06:06:53;;;;;;;15.43;9.90;;;;;;;;;;5105910;28;20630;-68
2022/03/07 06:09:18;;;;;;;16.93;9.40;;;;;;;;;;5103158;28;20655;-67
2022/03/07 06:11:43;;;;;;;13.60;8.53;;;;;;;;;;5103048;28;20182;-67
2022/03/07 06:14:08;;;;;;;14.50;9.83;;;;;;;;;;5104336;28;20275;-68
2022/03/07 06:16:34;;;;;;;14.57;10.50;;;;;;;;;;5108282;28;20354;-67
2022/03/07 06:18:59;;;;;;;14.77;9.87;;;;;;;;;;5084274;28;20420;-68
2022/03/07 06:21:24;;;;;;;16.77;9.47;;;;;;;;;;5108246;28;20215;-68
2022/03/07 06:23:50;;;;;;;13.47;9.93;;;;;;;;;;5097709;28;20741;-68
2022/03/07 06:26:15;;;;;;;14.17;8.87;;;;;;;;;;5109090;28;20575;-68
2022/03/07 06:28:40;;;;;;;12.00;9.00;;;;;;;;;;5105626;28;20693;-68
2022/03/07 06:31:05;;;;;;;14.83;10.80;;;;;;;;;;5103111;28;20184;-68
2022/03/07 06:33:30;;;;;;;14.83;11.33;;;;;;;;;;5104783;28;20180;-68
2022/03/07 06:35:56;;;;;;;16.20;11.10;;;;;;;;;;5104728;28;20182;-68
2022/03/07 06:38:21;;;;;;;16.63;10.33;;;;;;;;;;5096103;28;20261;-69
2022/03/07 06:40:46;;;;;;;18.03;9.37;;;;;;;;;;5103389;28;20180;-68
2022/03/07 06:43:12;;;;;;;14.87;9.80;;;;;;;;;;5099496;28;20191;-68
2022/03/07 06:45:37;;;;;;;15.70;10.50;;;;;;;;;;5102285;28;20187;-68
2022/03/07 06:48:03;;;;;;;15.93;9.97;;;;;;;;;;5106136;28;20206;-67
2022/03/07 06:50:28;;;;;;;13.90;9.97;;;;;;;;;;5101370;28;20361;-68
2022/03/07 06:52:54;;;;;;;15.60;10.30;;;;;;;;;;5100347;28;20172;-68
2022/03/07 06:55:19;;;;;;;17.20;10.10;;;;;;;;;;5106359;28;20184;-68
2022/03/07 06:57:44;;;;;;;15.57;10.27;;;;;;;;;;5103588;28;20192;-68
2022/03/07 07:00:11;;;;;;;15.03;10.70;;;;;;;;;;5099479;28;20935;-67
2022/03/07 07:02:37;;;;;;;14.23;9.10;;;;;;;;;;5093525;28;20176;-68
2022/03/07 07:05:03;;;;;;;14.43;9.90;;;;;;;;;;5097710;28;20187;-68
2022/03/07 07:07:29;;;;;;;13.43;9.47;;;;;;;;;;5105307;28;20193;-68
2022/03/07 07:09:54;;;;;;;18.80;11.37;;;;;;;;;;5101362;28;20167;-68
2022/03/07 07:12:19;;;;;;;17.17;10.70;;;;;;;;;;5107193;28;20869;-68
2022/03/07 07:14:44;;;;;;;13.83;10.37;;;;;;;;;;5099766;28;20204;-68
2022/03/07 07:17:09;;;;;;;16.43;11.37;;;;;;;;;;5106559;28;20215;-68
2022/03/07 07:19:35;;;;;;;15.60;10.63;;;;;;;;;;5106992;27;20182;-68
2022/03/07 07:22:00;;;;;;;20.40;11.20;;;;;;;;;;5096556;28;20578;-68
2022/03/07 07:24:25;;;;;;;14.13;10.93;;;;;;;;;;5082768;28;20248;-67
2022/03/07 07:26:50;;;;;;;12.23;10.10;;;;;;;;;;5099061;28;20231;-68
2022/03/07 07:29:15;;;;;;;12.73;10.20;;;;;;;;;;5108063;28;20168;-68
2022/03/07 07:31:41;;;;;;;11.00;8.73;;;;;;;;;;5112721;28;20543;-68
2022/03/07 07:34:06;;;;;;;13.67;9.10;;;;;;;;;;5106538;28;20226;-68
2022/03/07 07:36:31;;;;;;;12.53;9.27;;;;;;;;;;5108111;28;20207;-68
2022/03/07 07:38:56;;;;;;;10.83;8.87;;;;;;;;;;5107574;28;20684;-69
2022/03/07 07:41:21;;;;;;;11.47;8.50;;;;;;;;;;5101930;28;20195;-68
2022/03/07 07:43:49;;;;;;;9.97;8.10;;;;;;;;;;5103802;28;20179;-69
2022/03/07 07:46:14;;;;;;;11.63;8.73;;;;;;;;;;5107542;28;20258;-69
2022/03/07 07:48:39;;;;;;;11.23;8.83;;;;;;;;;;5111740;28;20404;-68
2022/03/07 07:51:04;;;;;;;12.40;9.07;;;;;;;;;;5109227;28;20701;-68
2022/03/07 07:53:30;;;;;;;14.07;8.53;;;;;;;;;;5102172;28;20206;-68
2022/03/07 07:55:55;;;;;;;11.13;8.47;;;;;;;;;;5095859;28;20536;-68
2022/03/07 07:58:20;;;;;;;10.73;8.90;;;;;;;;;;5105280;28;20685;-69
2022/03/07 08:00:45;;;;;;;10.97;8.13;;;;;;;;;;5100697;28;20187;-68
2022/03/07 08:03:11;;;;;;;12.00;8.43;;;;;;;;;;5103964;28;20185;-68
2022/03/07 08:05:36;;;;;;;12.97;8.57;;;;;;;;;;5103369;28;20257;-69
2022/03/07 08:08:02;;;;;;;13.00;8.43;;;;;;;;;;5103586;28;20199;-68
2022/03/07 08:10:27;;;;;;;11.80;7.73;;;;;;;;;;5109650;28;20175;-68
2022/03/07 08:12:52;;;;;;;11.73;7.87;;;;;;;;;;5098942;28;20261;-68
2022/03/07 08:15:18;;;;;;;10.83;8.27;;;;;;;;;;5102604;28;20215;-68
2022/03/07 08:17:46;;;;;;;10.90;7.90;;;;;;;;;;5103983;28;20682;-67
2022/03/07 08:20:12;;;;;;;11.53;7.57;;;;;;;;;;5098396;28;20318;-68
2022/03/07 08:22:37;;;;;;;13.50;7.80;;;;;;;;;;5098580;28;20648;-68
2022/03/07 08:25:03;;;;;;;10.40;7.53;;;;;;;;;;5081487;28;20186;-68
2022/03/07 08:27:28;;;;;;;9.50;7.53;;;;;;;;;;5094862;28;20192;-67
2022/03/07 08:29:53;;;;;;;9.70;7.57;;;;;;;;;;5082526;28;20171;-68
2022/03/07 08:32:18;;;;;;;10.27;7.40;;;;;;;;;;5082620;28;20187;-68
2022/03/07 08:34:43;;;;;;;8.37;6.87;;;;;;;;;;5096954;28;20679;-68
2022/03/07 08:37:12;;;;;;;9.03;7.00;;;;;;;;;;5080174;28;20287;-68
2022/03/07 08:39:37;;;;;;;11.40;7.23;;;;;;;;;;5095929;28;20321;-68
2022/03/07 08:42:02;;;;;;;7.10;6.40;;;;;;;;;;5099269;28;20274;-68
2022/03/07 08:44:27;;;;;;;9.50;6.97;;;;;;;;;;5098652;28;20186;-68
2022/03/07 08:46:52;;;;;;;13.23;7.17;;;;;;;;;;5103398;28;20306;-68
2022/03/07 08:49:18;;;;;;;8.00;6.73;;;;;;;;;;5100772;28;20337;-68
2022/03/07 08:51:46;;;;;;;7.53;6.73;;;;;;;;;;5102941;28;20165;-68
2022/03/07 08:54:11;;;;;;;9.90;6.40;;;;;;;;;;5073361;28;20203;-67
2022/03/07 08:56:36;;;;;;;10.07;6.37;;;;;;;;;;5106611;28;20210;-67
2022/03/07 08:59:02;;;;;;;7.30;5.60;;;;;;;;;;5100219;28;20196;-67
2022/03/07 09:01:27;;;;;;;5.50;5.00;;;;;;;;;;5093925;28;20262;-67
2022/03/07 09:03:52;;;;;;;5.93;5.33;;;;;;;;;;5103495;28;20183;-66
2022/03/07 09:06:18;;;;;;;6.03;5.43;;;;;;;;;;5098323;28;20192;-67
2022/03/07 09:08:43;;;;;;;9.47;6.90;;;;;;;;;;5102948;27;20277;-68
2022/03/07 09:11:08;;;;;;;7.00;5.57;;;;;;;;;;5100119;28;20179;-68
2022/03/07 09:13:33;;;;;;;6.80;5.67;;;;;;;;;;5100018;28;20180;-68
2022/03/07 09:15:58;;;;;;;8.20;5.73;;;;;;;;;;5099930;28;20592;-68
2022/03/07 09:18:25;;;;;;;5.67;5.17;;;;;;;;;;5103634;27;20716;-67
2022/03/07 09:20:51;;;;;;;6.77;5.37;;;;;;;;;;5100357;28;20263;-68
2022/03/07 09:23:16;;;;;;;6.53;5.93;;;;;;;;;;5097937;28;20612;-67
2022/03/07 09:25:41;;;;;;;8.60;5.47;;;;;;;;;;5099080;28;20207;-67
2022/03/07 09:28:06;;;;;;;7.23;5.83;;;;;;;;;;5104784;28;20198;-68
2022/03/07 09:30:32;;;;;;;7.90;5.40;;;;;;;;;;5097794;28;20164;-67
2022/03/07 09:32:58;;;;;;;6.90;5.37;;;;;;;;;;5096112;28;20172;-68
2022/03/07 09:35:23;;;;;;;6.07;5.47;;;;;;;;;;5099651;28;20267;-68
2022/03/07 09:37:48;;;;;;;6.73;6.03;;;;;;;;;;5097213;28;20216;-68
2022/03/07 09:40:14;;;;;;;7.00;5.53;;;;;;;;;;5094262;28;20183;-68
2022/03/07 09:42:39;;;;;;;7.90;5.73;;;;;;;;;;5097507;28;20699;-68
2022/03/07 09:45:04;;;;;;;9.20;6.10;;;;;;;;;;5097462;27;20716;-69
2022/03/07 09:47:30;;;;;;;7.00;6.00;;;;;;;;;;5098640;28;20206;-68
2022/03/07 09:49:55;;;;;;;6.97;6.27;;;;;;;;;;5098803;28;20547;-67
2022/03/07 09:52:21;;;;;;;6.17;5.57;;;;;;;;;;5105562;28;20174;-69
2022/03/07 09:54:46;;;;;;;6.50;5.90;;;;;;;;;;5101555;28;20199;-69
2022/03/07 09:57:11;;;;;;;7.00;5.50;;;;;;;;;;5099946;28;20222;-69
2022/03/07 09:59:36;;;;;;;6.40;5.47;;;;;;;;;;5092935;28;20179;-68
2022/03/07 10:02:05;;;;;;;6.97;5.07;;;;;;;;;;5104985;28;20682;-68
2022/03/07 10:04:31;;;;;;;6.07;5.50;;;;;;;;;;5094086;28;20195;-67
2022/03/07 10:06:57;;;;;;;6.47;5.57;;;;;;;;;;5096733;28;20217;-68
2022/03/07 10:09:23;;;;;;;5.30;4.77;;;;;;;;;;5096400;28;20183;-69
2022/03/07 10:11:49;;;;;;;6.73;5.07;;;;;;;;;;5098942;28;20184;-68
2022/03/07 10:14:15;;;;;;;6.10;5.00;;;;;;;;;;5106560;27;20879;-68
2022/03/07 10:16:41;;;;;;;5.70;5.00;;;;;;;;;;5099917;28;20240;-69
2022/03/07 10:19:07;;;;;;;5.27;4.43;;;;;;;;;;5095864;28;20202;-69
2022/03/07 10:21:33;;;;;;;5.63;4.90;;;;;;;;;;5104156;28;20184;-67
2022/03/07 10:23:58;;;;;;;5.87;5.10;;;;;;;;;;5102485;28;20711;-66
2022/03/07 10:26:24;;;;;;;5.40;4.90;;;;;;;;;;5100768;28;20234;-68
2022/03/07 10:28:56;;;;;;;5.40;4.60;;;;;;;;;;5101335;28;20583;-69
2022/03/07 10:31:22;;;;;;;5.90;5.20;;;;;;;;;;5099479;28;20176;-68
2022/03/07 10:33:58;;;;;;;4.93;4.47;;;;;;;;;;5101022;28;20178;-68
2022/03/07 10:36:29;;;;;;;7.07;4.17;;;;;;;;;;5098356;28;20248;-68
2022/03/07 10:38:57;;;;;;;6.37;4.83;;;;;;;;;;5098517;28;20223;-68
2022/03/07 10:41:39;;;;;;;4.00;3.67;;;;;;;;;;5076026;28;20211;-68
2022/03/07 10:44:05;;;;;;;4.47;4.10;;;;;;;;;;5097953;28;20208;-68
2022/03/07 10:46:31;;;;;;;5.77;3.97;;;;;;;;;;5101920;28;20218;-68
2022/03/07 10:48:56;;;;;;;5.87;4.40;;;;;;;;;;5109906;28;20199;-68
2022/03/07 10:51:21;;;;;;;5.20;4.20;;;;;;;;;;5103533;28;20203;-67
2022/03/07 10:53:47;;;;;;;6.07;4.93;;;;;;;;;;5100848;28;20646;-67
2022/03/07 10:56:13;;;;;;;4.60;4.20;;;;;;;;;;5097359;28;20187;-68
2022/03/07 10:58:48;;;;;;;5.77;4.37;;;;;;;;;;5103813;28;20328;-68
2022/03/07 11:01:13;;;;;;;6.87;4.80;;;;;;;;;;5095675;28;20558;-68
2022/03/07 11:03:39;;;;;;;6.43;4.13;;;;;;;;;;5103510;27;20171;-68
2022/03/07 11:06:04;;;;;;;5.73;4.53;;;;;;;;;;5102600;28;20260;-68
2022/03/07 11:08:30;;;;;;;5.53;4.77;;;;;;;;;;5099258;27;20736;-68
2022/03/07 11:10:56;;;;;;;4.87;4.07;;;;;;;;;;5104939;28;20390;-69
2022/03/07 11:13:29;;;;;;;6.83;4.77;;;;;;;;;;5102172;28;20266;-68
2022/03/07 11:16:04;;;;;;;5.60;4.33;;;;;;;;;;5106546;28;20563;-68
2022/03/07 11:18:30;;;;;;;6.33;4.47;;;;;;;;;;5100925;28;20286;-68
2022/03/07 11:20:55;;;;;;;4.93;3.90;;;;;;;;;;5109662;28;20263;-68
2022/03/07 11:23:21;;;;;;;4.77;4.30;;;;;;;;;;5102103;28;20187;-68
2022/03/07 11:25:51;;;;;;;4.73;4.10;;;;;;;;;;5103170;28;20287;-67
2022/03/07 11:28:16;;;;;;;4.40;4.00;;;;;;;;;;5100534;28;20280;-68
2022/03/07 11:30:43;;;;;;;5.97;4.67;;;;;;;;;;5095880;28;20664;-68
2022/03/07 11:33:13;;;;;;;7.10;4.50;;;;;;;;;;5103534;28;20542;-68
2022/03/07 11:35:45;;;;;;;4.80;4.07;;;;;;;;;;5105369;28;20240;-68
2022/03/07 11:38:15;;;;;;;6.83;4.73;;;;;;;;;;5098530;28;20211;-68
2022/03/07 11:40:59;;;;;;;6.27;4.83;;;;;;;;;;5107624;28;20179;-68
2022/03/07 11:43:25;;;;;;;5.20;4.70;;;;;;;;;;5103169;28;20175;-67
2022/03/07 11:45:52;;;;;;;5.87;5.37;;;;;;;;;;5103885;28;20223;-68
2022/03/07 11:48:17;;;;;;;4.57;4.10;;;;;;;;;;5107830;28;20195;-68
2022/03/07 11:50:42;;;;;;;5.60;4.23;;;;;;;;;;5104606;28;20603;-68
2022/03/07 11:53:07;;;;;;;5.63;4.43;;;;;;;;;;5107270;28;20168;-68
2022/03/07 11:55:41;;;;;;;4.47;4.00;;;;;;;;;;5105058;28;20172;-67
2022/03/07 11:58:08;;;;;;;4.70;4.17;;;;;;;;;;5104636;28;20208;-67
2022/03/07 12:00:35;;;;;;;5.03;4.63;;;;;;;;;;5100755;28;20244;-67
2022/03/07 12:03:14;;;;;;;7.97;6.37;;;;;;;;;;5107012;28;20175;-68
2022/03/07 12:05:40;;;;;;;5.23;4.73;;;;;;;;;;5105939;28;20601;-68
2022/03/07 12:08:08;;;;;;;6.37;4.87;;;;;;;;;;5108001;28;20238;-68
2022/03/07 12:10:33;;;;;;;5.10;4.60;;;;;;;;;;5101625;28;20601;-68
2022/03/07 12:13:05;;;;;;;6.30;4.83;;;;;;;;;;5098823;28;20317;-68
2022/03/07 12:15:30;;;;;;;4.70;4.17;;;;;;;;;;5104452;28;20180;-68
2022/03/07 12:17:56;;;;;;;4.63;4.07;;;;;;;;;;5111705;27;20317;-69
2022/03/07 12:20:21;;;;;;;5.53;4.93;;;;;;;;;;5105621;27;20180;-68
2022/03/07 12:22:47;;;;;;;4.90;4.40;;;;;;;;;;5108357;28;20330;-68
2022/03/07 12:25:12;;;;;;;10.17;4.70;;;;;;;;;;5108168;28;20191;-68
2022/03/07 12:27:39;;;;;;;8.70;4.80;;;;;;;;;;5108408;28;20232;-69
2022/03/07 12:30:06;;;;;;;6.03;5.43;;;;;;;;;;5089867;28;20596;-68
2022/03/07 12:32:31;;;;;;;6.27;4.80;;;;;;;;;;5107926;28;20676;-68
2022/03/07 12:34:56;;;;;;;5.67;5.07;;;;;;;;;;5103712;28;20172;-68
2022/03/07 12:37:22;;;;;;;4.70;4.30;;;;;;;;;;5109810;28;20210;-68
2022/03/07 12:39:49;;;;;;;5.73;5.13;;;;;;;;;;5088951;28;20558;-66
2022/03/07 12:42:15;;;;;;;5.17;4.67;;;;;;;;;;5102067;28;20179;-66
2022/03/07 12:44:40;;;;;;;6.53;5.00;;;;;;;;;;5097674;28;20176;-67
2022/03/07 12:47:06;;;;;;;4.87;4.43;;;;;;;;;;5104935;28;20202;-66
2022/03/07 12:49:31;;;;;;;5.17;4.67;;;;;;;;;;5101505;28;20171;-68
2022/03/07 12:51:57;;;;;;;7.17;4.90;;;;;;;;;;5097809;28;20194;-66
2022/03/07 12:54:26;;;;;;;5.10;4.28;;;;;;;;;;5101755;28;20183;-68
2022/03/07 12:56:51;;;;;;;5.75;4.80;;;;;;;;;;5108038;28;20586;-67
2022/03/07 12:59:23;;;;;;;6.38;5.20;;;;;;;;;;5106323;28;20271;-69
2022/03/07 13:01:50;;;;;;;5.20;4.70;;;;;;;;;;5105091;28;20211;-69
2022/03/07 13:04:16;;;;;;;5.65;4.47;;;;;;;;;;5097208;27;20203;-67
2022/03/07 13:06:45;;;;;;;4.30;3.90;;;;;;;;;;5102443;28;20209;-67
2022/03/07 13:09:11;;;;;;;5.40;4.90;;;;;;;;;;5083220;28;20198;-66
2022/03/07 13:11:38;;;;;;;5.80;5.30;;;;;;;;;;5107938;28;20262;-69
2022/03/07 13:14:03;;;;;;;4.95;4.47;;;;;;;;;;5100712;28;20181;-69
2022/03/07 13:16:30;;;;;;;4.78;4.30;;;;;;;;;;5109099;28;20221;-67
2022/03/07 13:18:56;;;;;;;5.13;4.50;;;;;;;;;;5109904;27;20227;-69
2022/03/07 13:21:21;;;;;;;5.90;4.53;;;;;;;;;;5100706;28;20227;-69
2022/03/07 13:23:47;;;;;;;5.43;4.43;;;;;;;;;;5101160;28;20167;-69
2022/03/07 13:26:21;;;;;;;5.20;4.70;;;;;;;;;;5099424;28;20200;-68
2022/03/07 13:28:46;;;;;;;5.88;4.53;;;;;;;;;;5100817;28;20196;-68
2022/03/07 13:31:11;;;;;;;5.18;4.47;;;;;;;;;;5086987;28;20198;-68
2022/03/07 13:33:36;;;;;;;5.50;5.00;;;;;;;;;;5100892;28;20257;-68
2022/03/07 13:36:09;;;;;;;6.10;5.03;;;;;;;;;;5102231;28;20247;-68
2022/03/07 13:38:36;;;;;;;5.82;5.22;;;;;;;;;;5086274;28;20650;-68
2022/03/07 13:41:05;;;;;;;5.50;4.35;;;;;;;;;;5106425;28;20672;-68
2022/03/07 13:43:30;;;;;;;5.72;5.13;;;;;;;;;;5095964;28;20253;-68
2022/03/07 13:45:56;;;;;;;5.53;4.85;;;;;;;;;;5105326;28;20203;-68
2022/03/07 13:48:22;;;;;;;6.43;5.82;;;;;;;;;;5104454;28;20203;-68
2022/03/07 13:50:48;;;;;;;5.72;5.05;;;;;;;;;;5101743;28;20184;-69
2022/03/07 13:53:14;;;;;;;6.00;5.40;;;;;;;;;;5100886;28;20182;-68
2022/03/07 13:55:45;;;;;;;6.63;5.20;;;;;;;;;;5101980;28;20649;-68
2022/03/07 13:58:22;;;;;;;5.82;5.32;;;;;;;;;;5103618;28;20602;-69
2022/03/07 14:00:47;;;;;;;7.38;5.30;;;;;;;;;;5100687;28;20290;-68
2022/03/07 14:03:13;;;;;;;6.55;5.25;;;;;;;;;;5100297;28;20302;-68
2022/03/07 14:05:40;;;;;;;6.32;5.38;;;;;;;;;;5095642;28;20199;-68
2022/03/07 14:08:05;;;;;;;7.80;5.63;;;;;;;;;;5101859;28;20184;-68
2022/03/07 14:10:30;;;;;;;7.43;6.15;;;;;;;;;;5107109;28;20186;-68
2022/03/07 14:12:57;;;;;;;8.15;6.13;;;;;;;;;;5104397;28;20816;-68
2022/03/07 14:15:26;;;;;;;6.05;5.53;;;;;;;;;;5101578;28;20172;-68
2022/03/07 14:18:10;;;;;;;10.82;6.28;;;;;;;;;;5103885;28;20748;-69
2022/03/07 14:20:37;;;;;;;6.75;5.88;;;;;;;;;;5093683;28;20267;-67
2022/03/07 14:23:03;;;;;;;6.75;6.03;;;;;;;;;;5101320;28;20175;-66
2022/03/07 14:25:28;;;;;;;6.20;5.60;;;;;;;;;;5102077;28;20679;-67
2022/03/07 14:27:54;;;;;;;7.15;5.85;;;;;;;;;;5099211;28;20188;-66
2022/03/07 14:30:19;;;;;;;7.38;5.80;;;;;;;;;;5094275;28;20184;-66